Time;durP1;ratioP1;P1;durP2;ratioP2;P2;SDS_P1;SDS_P2;PMS_P1;PMS_P2;Temp;Humidity;BMP_temperature;BMP_pressure;BME280_temperature;BME280_humidity;BME280_pressure;Samples;Min_cycle;Max_cycle;Signal;HPM_P1;HPM_P2
2020/12/20 00:01:47;;;;;;;3.87;1.02;;;3.50;99.90;;;;;;4400518;32;20069;-54
2020/12/20 00:04:13;;;;;;;0.50;0.50;;;3.50;99.90;;;;;;4401396;32;20054;-58
2020/12/20 00:06:41;;;;;;;0.40;0.40;;;3.50;99.90;;;;;;4400653;32;20081;-58
2020/12/20 00:09:08;;;;;;;7.85;0.98;;;3.50;99.90;;;;;;4401031;32;20063;-58
2020/12/20 00:11:39;;;;;;;0.68;0.68;;;3.50;99.90;;;;;;4388618;32;20078;-56
2020/12/20 00:14:26;;;;;;;;;;;3.40;99.90;;;;;;4387010;32;20086;-57
2020/12/20 00:16:50;;;;;;;0.77;0.77;;;3.50;99.90;;;;;;4385287;32;19964;-57
2020/12/20 00:19:16;;;;;;;0.40;0.40;;;3.50;99.90;;;;;;4400930;32;20054;-58
2020/12/20 00:21:41;;;;;;;0.88;0.88;;;3.50;99.90;;;;;;4386738;32;20139;-57
2020/12/20 00:24:10;;;;;;;0.77;0.68;;;3.40;99.90;;;;;;4399765;32;20074;-58
2020/12/20 00:26:35;;;;;;;2.03;1.83;;;3.40;99.90;;;;;;4400563;32;20061;-58
2020/12/20 00:29:02;;;;;;;0.80;0.80;;;3.30;99.90;;;;;;4400431;32;20082;-58
2020/12/20 00:31:27;;;;;;;1.10;0.98;;;3.20;99.90;;;;;;4401091;32;20074;-58
2020/12/20 00:33:53;;;;;;;0.80;0.80;;;3.20;99.90;;;;;;4399664;32;20086;-55
2020/12/20 00:36:18;;;;;;;0.65;0.65;;;3.10;99.90;;;;;;4401309;32;20471;-56
2020/12/20 00:38:44;;;;;;;0.70;0.70;;;3.10;99.90;;;;;;4401017;32;20070;-56
2020/12/20 00:41:10;;;;;;;3.20;1.95;;;3.10;99.90;;;;;;4401402;32;20074;-59
2020/12/20 00:43:35;;;;;;;1.17;0.88;;;3.10;99.90;;;;;;4400862;32;20066;-54
2020/12/20 00:46:01;;;;;;;1.45;1.30;;;3.10;99.90;;;;;;4398605;32;20062;-59
2020/12/20 00:48:27;;;;;;;3.62;1.60;;;3.20;99.90;;;;;;4401633;32;20070;-60
2020/12/20 00:50:52;;;;;;;0.70;0.70;;;3.20;99.90;;;;;;4400586;32;20058;-58
2020/12/20 00:53:17;;;;;;;0.57;0.57;;;3.30;99.90;;;;;;4400189;32;20065;-59
2020/12/20 00:55:43;;;;;;;0.50;0.50;;;3.30;99.90;;;;;;4400265;32;20054;-59
2020/12/20 00:58:08;;;;;;;1.00;0.77;;;3.30;99.90;;;;;;4400587;32;20062;-59
2020/12/20 01:00:34;;;;;;;0.40;0.40;;;3.40;99.90;;;;;;4400384;32;20503;-58
2020/12/20 01:02:59;;;;;;;1.02;0.82;;;3.40;99.90;;;;;;4401217;32;20463;-57
2020/12/20 01:05:25;;;;;;;1.98;0.62;;;3.40;99.90;;;;;;4399556;32;20062;-58
2020/12/20 01:07:50;;;;;;;1.55;1.35;;;3.40;99.90;;;;;;4399838;32;20515;-57
2020/12/20 01:10:15;;;;;;;0.73;0.70;;;3.30;99.90;;;;;;4396778;32;20441;-59
2020/12/20 01:12:41;;;;;;;1.10;0.85;;;3.30;99.90;;;;;;4385405;32;20109;-58
2020/12/20 01:15:07;;;;;;;0.73;0.73;;;3.30;99.90;;;;;;4386136;32;20058;-59
2020/12/20 01:17:32;;;;;;;0.75;0.75;;;3.30;99.90;;;;;;4388967;32;20074;-57
2020/12/20 01:19:57;;;;;;;1.30;1.20;;;3.30;99.90;;;;;;4401225;32;20381;-54
2020/12/20 01:22:23;;;;;;;2.00;1.42;;;3.30;99.90;;;;;;4400512;32;20066;-59
2020/12/20 01:24:48;;;;;;;0.50;0.50;;;3.30;99.90;;;;;;4400289;32;20070;-59
2020/12/20 01:27:14;;;;;;;0.32;0.32;;;3.20;99.90;;;;;;4400345;32;20433;-58
2020/12/20 01:29:39;;;;;;;1.15;1.05;;;3.10;99.90;;;;;;4400326;32;20083;-54
2020/12/20 01:32:05;;;;;;;1.33;0.90;;;3.10;99.90;;;;;;4400858;32;20128;-60
2020/12/20 01:34:30;;;;;;;0.70;0.70;;;3.10;99.90;;;;;;4399611;32;20112;-60
2020/12/20 01:36:56;;;;;;;4.03;0.60;;;3.10;99.90;;;;;;4401413;32;20074;-59
2020/12/20 01:39:21;;;;;;;1.12;1.02;;;3.30;99.90;;;;;;4400391;32;20070;-56
2020/12/20 01:41:47;;;;;;;0.50;0.50;;;3.10;99.90;;;;;;4400438;32;20069;-55
2020/12/20 01:44:12;;;;;;;0.43;0.43;;;3.00;99.90;;;;;;4400162;32;20414;-56
2020/12/20 01:46:42;;;;;;;0.73;0.73;;;2.90;99.90;;;;;;4399864;32;20078;-56
2020/12/20 01:49:09;;;;;;;0.60;0.60;;;2.90;99.90;;;;;;4398826;32;20529;-56
2020/12/20 01:51:35;;;;;;;1.00;1.00;;;2.90;99.90;;;;;;4399568;32;20058;-54
2020/12/20 01:54:00;;;;;;;0.60;0.60;;;2.90;99.90;;;;;;4399663;32;20467;-54
2020/12/20 01:56:26;;;;;;;0.60;0.60;;;2.90;99.90;;;;;;4399298;32;20066;-57
2020/12/20 01:58:52;;;;;;;0.50;0.50;;;2.90;99.90;;;;;;4399438;32;20058;-55
2020/12/20 02:01:17;;;;;;;0.60;0.60;;;2.90;99.90;;;;;;4400683;32;20057;-58
2020/12/20 02:03:43;;;;;;;0.82;0.80;;;2.90;99.90;;;;;;4399669;32;20827;-58
2020/12/20 02:06:13;;;;;;;0.77;0.77;;;2.80;99.90;;;;;;4399504;32;20061;-57
2020/12/20 02:08:39;;;;;;;0.43;0.43;;;2.80;99.90;;;;;;4399257;32;20082;-59
2020/12/20 02:11:08;;;;;;;0.50;0.50;;;2.90;99.90;;;;;;4392271;32;20122;-56
2020/12/20 02:13:35;;;;;;;0.62;0.62;;;2.90;99.90;;;;;;4383586;32;20066;-54
2020/12/20 02:16:02;;;;;;;0.47;0.47;;;2.90;99.90;;;;;;4383455;32;20062;-57
2020/12/20 02:18:27;;;;;;;0.45;0.45;;;2.90;99.90;;;;;;4393141;32;20120;-55
2020/12/20 02:20:53;;;;;;;0.60;0.60;;;3.00;99.90;;;;;;4399542;32;20065;-59
2020/12/20 02:23:20;;;;;;;0.90;0.82;;;2.90;99.90;;;;;;4397463;32;20503;-55
2020/12/20 02:25:45;;;;;;;0.95;0.88;;;3.00;99.90;;;;;;4399008;32;20066;-58
2020/12/20 02:28:11;;;;;;;0.40;0.40;;;2.90;99.90;;;;;;4399415;32;20070;-59
2020/12/20 02:30:36;;;;;;;0.68;0.65;;;2.90;99.90;;;;;;4400136;32;20520;-57
2020/12/20 02:33:02;;;;;;;1.08;1.00;;;2.90;99.90;;;;;;4399518;32;20066;-55
2020/12/20 02:35:27;;;;;;;3.05;1.58;;;2.90;99.90;;;;;;4400259;32;20074;-58
2020/12/20 02:37:53;;;;;;;1.20;1.00;;;2.90;99.90;;;;;;4399777;32;20066;-56
2020/12/20 02:40:18;;;;;;;0.45;0.45;;;2.90;99.90;;;;;;4399620;32;20422;-56
2020/12/20 02:42:44;;;;;;;0.52;0.52;;;2.90;99.90;;;;;;4399358;32;20385;-57
2020/12/20 02:45:10;;;;;;;0.80;0.80;;;3.00;99.90;;;;;;4399141;32;20396;-57
2020/12/20 02:47:35;;;;;;;0.60;0.60;;;2.80;99.90;;;;;;4385206;32;20082;-58
2020/12/20 02:50:00;;;;;;;0.80;0.80;;;2.90;99.90;;;;;;4399781;32;20062;-58
2020/12/20 02:52:26;;;;;;;1.25;0.77;;;2.90;99.90;;;;;;4398696;32;20073;-59
2020/12/20 02:54:51;;;;;;;0.75;0.75;;;2.80;99.90;;;;;;4399085;32;20062;-55
2020/12/20 02:57:17;;;;;;;0.50;0.50;;;2.80;99.90;;;;;;4398659;32;20078;-57
2020/12/20 02:59:42;;;;;;;0.95;0.95;;;2.90;99.90;;;;;;4399652;32;20050;-57
2020/12/20 03:02:08;;;;;;;0.62;0.62;;;2.90;99.90;;;;;;4399815;32;20070;-58
2020/12/20 03:04:33;;;;;;;1.00;0.98;;;2.80;99.90;;;;;;4399147;32;20066;-58
2020/12/20 03:06:59;;;;;;;0.85;0.85;;;2.70;99.90;;;;;;4399459;32;20070;-59
2020/12/20 03:09:24;;;;;;;1.02;0.90;;;2.80;99.90;;;;;;4399245;32;20058;-58
2020/12/20 03:11:50;;;;;;;0.50;0.50;;;2.70;99.90;;;;;;4385144;32;20062;-56
2020/12/20 03:14:15;;;;;;;1.37;0.68;;;2.70;99.90;;;;;;4383785;32;20062;-58
2020/12/20 03:16:41;;;;;;;3.12;0.73;;;2.70;99.90;;;;;;4384136;32;20086;-59
2020/12/20 03:19:06;;;;;;;0.60;0.60;;;2.80;99.90;;;;;;4400292;32;20065;-55
2020/12/20 03:21:32;;;;;;;0.75;0.70;;;2.80;99.90;;;;;;4402019;32;20127;-60
2020/12/20 03:24:00;;;;;;;0.45;0.45;;;2.80;99.90;;;;;;4400744;32;20057;-58
2020/12/20 03:26:27;;;;;;;1.98;1.00;;;2.80;99.90;;;;;;4402406;32;20511;-58
2020/12/20 03:28:52;;;;;;;0.80;0.77;;;2.80;99.90;;;;;;4399474;32;20109;-58
2020/12/20 03:31:18;;;;;;;0.43;0.43;;;2.80;99.90;;;;;;4401352;32;20066;-58
2020/12/20 03:33:43;;;;;;;2.30;1.37;;;3.00;99.90;;;;;;4400823;32;20062;-55
2020/12/20 03:36:08;;;;;;;0.70;0.70;;;3.10;99.90;;;;;;4400945;32;20246;-56
2020/12/20 03:38:34;;;;;;;0.88;0.73;;;3.00;99.90;;;;;;4401175;32;20062;-54
2020/12/20 03:40:59;;;;;;;0.82;0.82;;;3.00;99.90;;;;;;4401292;32;20112;-54
2020/12/20 03:43:25;;;;;;;0.80;0.80;;;3.00;99.90;;;;;;4400870;32;20061;-59
2020/12/20 03:45:50;;;;;;;0.93;0.88;;;3.00;99.90;;;;;;4400555;32;20496;-55
2020/12/20 03:48:16;;;;;;;0.80;0.70;;;3.00;99.90;;;;;;4400607;32;20064;-60
2020/12/20 03:50:41;;;;;;;7.43;1.52;;;3.00;99.90;;;;;;4401952;32;20518;-58
2020/12/20 03:53:07;;;;;;;0.88;0.68;;;3.10;99.90;;;;;;4400263;32;20054;-59
2020/12/20 03:55:32;;;;;;;0.68;0.68;;;3.00;99.90;;;;;;4401358;32;20117;-54
2020/12/20 03:57:57;;;;;;;0.40;0.40;;;2.90;99.90;;;;;;4400707;32;20492;-55
2020/12/20 04:00:23;;;;;;;0.85;0.57;;;3.00;99.90;;;;;;4401439;32;20057;-59
2020/12/20 04:02:48;;;;;;;2.08;0.98;;;3.10;99.90;;;;;;4402079;32;20053;-56
2020/12/20 04:05:15;;;;;;;0.82;0.82;;;3.20;99.90;;;;;;4401687;32;20058;-58
2020/12/20 04:07:42;;;;;;;0.80;0.75;;;3.20;99.90;;;;;;4400696;32;20125;-59
2020/12/20 04:10:08;;;;;;;0.50;0.50;;;3.20;99.90;;;;;;4398391;32;20071;-56
2020/12/20 04:12:34;;;;;;;0.85;0.85;;;3.30;99.90;;;;;;4385933;32;20067;-58
2020/12/20 04:14:59;;;;;;;0.70;0.70;;;3.10;99.90;;;;;;4386032;32;20473;-58
2020/12/20 04:17:24;;;;;;;0.70;0.70;;;3.10;99.90;;;;;;4389601;32;20062;-53
2020/12/20 04:19:50;;;;;;;0.45;0.45;;;3.20;99.90;;;;;;4401834;32;20074;-56
2020/12/20 04:22:15;;;;;;;0.68;0.68;;;3.30;99.90;;;;;;4400624;32;20074;-58
2020/12/20 04:24:41;;;;;;;0.70;0.70;;;3.20;99.90;;;;;;4400677;32;20429;-56
2020/12/20 04:27:06;;;;;;;2.35;1.15;;;3.00;99.90;;;;;;4400125;32;20108;-55
2020/12/20 04:29:32;;;;;;;2.85;1.08;;;2.90;99.90;;;;;;4400295;32;20061;-56
2020/12/20 04:31:59;;;;;;;0.62;0.62;;;3.00;99.90;;;;;;4400840;32;20507;-56
2020/12/20 04:34:25;;;;;;;0.43;0.43;;;3.00;99.90;;;;;;4401379;32;20065;-56
2020/12/20 04:36:50;;;;;;;0.77;0.77;;;2.90;99.90;;;;;;4401200;32;20562;-56
2020/12/20 04:39:16;;;;;;;1.10;0.77;;;2.90;99.90;;;;;;4400001;32;20061;-56
2020/12/20 04:41:41;;;;;;;5.18;1.15;;;2.90;99.90;;;;;;4400646;32;20062;-55
2020/12/20 04:44:07;;;;;;;0.50;0.50;;;3.00;99.90;;;;;;4400445;32;20062;-56
2020/12/20 04:46:34;;;;;;;0.52;0.52;;;2.90;99.90;;;;;;4400328;32;20441;-57
2020/12/20 04:49:02;;;;;;;1.15;1.00;;;2.80;99.90;;;;;;4401223;32;20078;-54
2020/12/20 04:51:28;;;;;;;13.30;3.28;;;2.80;99.90;;;;;;4401528;32;20062;-54
2020/12/20 04:53:58;;;;;;;0.40;0.40;;;2.80;99.90;;;;;;4398937;32;20550;-53
2020/12/20 04:56:23;;;;;;;2.70;1.08;;;2.70;99.90;;;;;;4399231;32;20169;-55
2020/12/20 04:58:49;;;;;;;0.70;0.70;;;2.80;99.90;;;;;;4401188;32;20086;-55
2020/12/20 05:01:15;;;;;;;3.53;1.12;;;2.70;99.90;;;;;;4400472;32;20062;-57
2020/12/20 05:03:41;;;;;;;0.88;0.80;;;2.70;99.90;;;;;;4400029;32;20075;-58
2020/12/20 05:06:07;;;;;;;2.53;1.00;;;2.70;99.90;;;;;;4391085;32;20071;-58
2020/12/20 05:08:33;;;;;;;0.93;0.93;;;2.70;99.90;;;;;;4385653;32;20441;-56
2020/12/20 05:10:58;;;;;;;1.67;0.85;;;2.60;99.90;;;;;;4391842;32;20074;-55
2020/12/20 05:13:38;;;;;;;1.35;1.20;;;2.60;99.90;;;;;;4400073;32;20543;-57
2020/12/20 05:16:03;;;;;;;1.37;1.25;;;2.60;99.90;;;;;;4400838;32;20057;-58
2020/12/20 05:18:29;;;;;;;0.62;0.62;;;2.60;99.90;;;;;;4390190;32;20066;-56
2020/12/20 05:20:54;;;;;;;2.37;1.00;;;2.50;99.90;;;;;;4385639;32;20055;-57
2020/12/20 05:23:19;;;;;;;0.57;0.57;;;2.60;99.90;;;;;;4385364;32;20078;-54
2020/12/20 05:25:45;;;;;;;1.27;1.10;;;2.50;99.90;;;;;;4386248;32;20487;-59
2020/12/20 05:28:14;;;;;;;0.93;0.93;;;2.60;99.90;;;;;;4384861;32;20074;-55
2020/12/20 05:30:42;;;;;;;0.60;0.60;;;2.60;99.90;;;;;;4370962;32;20070;-54
2020/12/20 05:33:08;;;;;;;0.80;0.80;;;2.50;99.90;;;;;;4383795;32;20058;-53
2020/12/20 05:35:35;;;;;;;0.90;0.90;;;2.50;99.90;;;;;;4383776;32;20070;-57
2020/12/20 05:38:02;;;;;;;0.57;0.57;;;2.50;99.90;;;;;;4385459;32;20063;-59
2020/12/20 05:40:31;;;;;;;0.60;0.57;;;2.40;99.90;;;;;;4384597;32;20114;-55
2020/12/20 05:43:00;;;;;;;0.47;0.47;;;2.40;99.90;;;;;;4383086;32;20079;-55
2020/12/20 05:45:31;;;;;;;0.50;0.50;;;2.40;99.90;;;;;;4385229;32;20074;-57
2020/12/20 05:47:57;;;;;;;0.62;0.62;;;2.30;99.90;;;;;;4384171;32;20067;-56
2020/12/20 05:50:28;;;;;;;1.75;1.17;;;2.40;99.90;;;;;;4384094;32;20079;-58
2020/12/20 05:53:09;;;;;;;1.33;1.17;;;2.30;99.90;;;;;;4385184;32;20062;-58
2020/12/20 05:55:36;;;;;;;0.70;0.70;;;2.30;99.90;;;;;;4384148;32;20507;-56
2020/12/20 05:58:17;;;;;;;3.30;1.12;;;2.30;99.90;;;;;;4383960;32;20070;-58
2020/12/20 06:00:44;;;;;;;3.10;1.65;;;2.30;99.90;;;;;;4384079;32;20062;-58
2020/12/20 06:03:10;;;;;;;0.62;0.62;;;2.20;99.90;;;;;;4371949;32;20062;-58
2020/12/20 06:05:38;;;;;;;0.70;0.70;;;2.20;99.90;;;;;;4390350;32;20057;-56
2020/12/20 06:08:07;;;;;;;0.40;0.40;;;2.30;99.90;;;;;;4399873;32;20189;-57
2020/12/20 06:10:36;;;;;;;0.77;0.77;;;2.30;99.90;;;;;;4385911;32;20074;-56
2020/12/20 06:13:04;;;;;;;0.65;0.65;;;2.30;99.90;;;;;;4397829;32;20105;-57
2020/12/20 06:15:32;;;;;;;1.37;0.75;;;2.20;99.90;;;;;;4398238;32;20120;-55
2020/12/20 06:18:03;;;;;;;0.90;0.90;;;2.20;99.90;;;;;;4392498;32;20125;-58
2020/12/20 06:20:29;;;;;;;1.75;1.05;;;2.20;99.90;;;;;;4371129;32;20106;-58
2020/12/20 06:22:55;;;;;;;1.45;1.15;;;2.20;99.90;;;;;;4385088;32;20062;-53
2020/12/20 06:25:23;;;;;;;0.45;0.45;;;2.20;99.90;;;;;;4383272;32;20067;-54
2020/12/20 06:27:49;;;;;;;0.40;0.40;;;2.20;99.90;;;;;;4385424;32;20055;-58
2020/12/20 06:30:15;;;;;;;0.60;0.60;;;2.20;99.90;;;;;;4383694;32;20414;-58
2020/12/20 06:32:44;;;;;;;0.60;0.60;;;2.10;99.90;;;;;;4385406;32;20114;-56
2020/12/20 06:35:13;;;;;;;0.52;0.52;;;2.10;99.90;;;;;;4382929;32;20425;-56
2020/12/20 06:37:41;;;;;;;1.00;0.95;;;2.10;99.90;;;;;;4385644;32;20186;-56
2020/12/20 06:40:06;;;;;;;0.85;0.85;;;2.20;99.90;;;;;;4384303;32;20059;-58
2020/12/20 06:42:36;;;;;;;0.40;0.40;;;2.20;99.90;;;;;;4382828;32;20078;-58
2020/12/20 06:45:20;;;;;;;2.90;1.35;;;2.20;99.90;;;;;;4383649;32;20082;-56
2020/12/20 06:47:48;;;;;;;1.52;0.98;;;2.30;99.90;;;;;;4371359;32;20292;-56
2020/12/20 06:50:34;;;;;;;4.50;1.75;;;2.30;99.90;;;;;;4371611;32;20066;-59
2020/12/20 06:53:00;;;;;;;1.80;1.02;;;2.30;99.90;;;;;;4383107;32;20247;-58
2020/12/20 06:55:25;;;;;;;0.60;0.60;;;2.30;99.90;;;;;;4384073;32;20078;-55
2020/12/20 06:58:09;;;;;;;0.40;0.40;;;2.20;99.90;;;;;;4384699;32;20065;-58
2020/12/20 07:00:55;;;;;;;0.82;0.80;;;2.20;99.90;;;;;;4382842;32;20058;-57
2020/12/20 07:03:24;;;;;;;1.35;1.20;;;2.30;99.90;;;;;;4384284;32;20083;-58
2020/12/20 07:05:51;;;;;;;5.68;2.40;;;2.40;99.90;;;;;;4390762;32;20097;-55
2020/12/20 07:08:22;;;;;;;1.83;1.20;;;2.50;99.90;;;;;;4399671;32;20503;-57
2020/12/20 07:10:51;;;;;;;0.50;0.50;;;2.50;99.90;;;;;;4399887;32;20401;-55
2020/12/20 07:13:33;;;;;;;0.93;0.70;;;2.50;99.90;;;;;;4398434;32;20462;-58
2020/12/20 07:16:19;;;;;;;1.73;1.00;;;2.50;99.90;;;;;;4398900;32;20400;-57
2020/12/20 07:18:54;;;;;;;0.60;0.60;;;2.40;99.90;;;;;;4386154;32;20105;-58
2020/12/20 07:21:23;;;;;;;1.17;1.08;;;2.40;99.90;;;;;;4384735;32;20410;-54
2020/12/20 07:23:54;;;;;;;1.58;1.48;;;2.30;99.90;;;;;;4384083;32;20058;-55
2020/12/20 07:26:20;;;;;;;2.10;0.80;;;2.30;99.90;;;;;;4384005;32;20105;-58
2020/12/20 07:28:46;;;;;;;1.80;1.30;;;2.30;99.90;;;;;;4384338;32;20070;-59
2020/12/20 07:31:14;;;;;;;1.02;0.98;;;2.30;99.90;;;;;;4384102;32;20109;-59
2020/12/20 07:33:40;;;;;;;2.10;1.33;;;2.20;99.90;;;;;;4382585;32;20507;-58
2020/12/20 07:36:05;;;;;;;1.35;1.20;;;2.20;99.90;;;;;;4384253;32;20062;-59
2020/12/20 07:38:31;;;;;;;2.17;1.45;;;2.20;99.90;;;;;;4382374;32;20125;-54
2020/12/20 07:40:56;;;;;;;1.02;1.00;;;2.20;99.90;;;;;;4383881;32;20531;-59
2020/12/20 07:43:22;;;;;;;0.88;0.88;;;2.20;99.90;;;;;;4382730;32;20110;-58
2020/12/20 07:45:58;;;;;;;2.87;1.12;;;2.20;99.90;;;;;;4383657;32;20062;-55
2020/12/20 07:48:24;;;;;;;0.52;0.50;;;2.30;99.90;;;;;;4384248;32;20082;-58
2020/12/20 07:50:50;;;;;;;5.70;1.08;;;2.20;99.90;;;;;;4384388;32;20055;-56
2020/12/20 07:53:16;;;;;;;0.50;0.50;;;2.20;99.90;;;;;;4382314;32;20495;-55
2020/12/20 07:55:47;;;;;;;0.95;0.95;;;2.20;99.90;;;;;;4382840;32;20059;-55
2020/12/20 07:58:13;;;;;;;1.42;1.33;;;2.30;99.90;;;;;;4383502;32;20413;-58
2020/12/20 08:00:44;;;;;;;0.47;0.47;;;2.30;99.90;;;;;;4383029;32;20079;-58
2020/12/20 08:03:09;;;;;;;2.35;1.33;;;2.30;99.90;;;;;;4383063;32;20074;-58
2020/12/20 08:05:35;;;;;;;2.47;1.12;;;2.20;99.90;;;;;;4391353;32;20082;-59
2020/12/20 08:08:00;;;;;;;3.53;1.90;;;2.10;99.90;;;;;;4401857;32;20058;-58
2020/12/20 08:10:26;;;;;;;0.80;0.80;;;2.10;99.90;;;;;;4401420;32;20078;-57
2020/12/20 08:12:52;;;;;;;7.37;1.58;;;2.20;99.90;;;;;;4401180;32;20066;-57
2020/12/20 08:15:18;;;;;;;6.90;1.35;;;2.20;99.90;;;;;;4400162;32;20058;-58
2020/12/20 08:17:43;;;;;;;1.85;1.33;;;2.20;99.90;;;;;;4395534;32;20066;-55
2020/12/20 08:20:09;;;;;;;0.68;0.68;;;2.30;99.90;;;;;;4386239;32;20481;-54
2020/12/20 08:22:36;;;;;;;1.33;1.23;;;2.30;99.90;;;;;;4385115;32;20158;-57
2020/12/20 08:25:11;;;;;;;1.20;1.10;;;2.40;99.90;;;;;;4385055;32;20119;-58
2020/12/20 08:27:39;;;;;;;2.25;1.33;;;2.60;99.90;;;;;;4386551;32;20162;-59
2020/12/20 08:30:07;;;;;;;1.50;1.40;;;2.60;99.90;;;;;;4385128;32;20075;-56
2020/12/20 08:32:35;;;;;;;1.40;1.30;;;2.60;99.90;;;;;;4385491;32;20062;-58
2020/12/20 08:35:18;;;;;;;1.50;1.02;;;2.50;99.90;;;;;;4384454;32;20121;-57
2020/12/20 08:37:45;;;;;;;4.57;2.35;;;2.60;99.90;;;;;;4386212;32;20067;-54
2020/12/20 08:40:13;;;;;;;0.95;0.95;;;2.70;99.90;;;;;;4384836;32;76010;-57
2020/12/20 08:42:39;;;;;;;3.15;1.48;;;2.70;99.90;;;;;;4384950;32;20134;-57
2020/12/20 08:45:23;;;;;;;1.17;0.95;;;2.60;99.90;;;;;;4384793;32;20120;-57
2020/12/20 08:47:49;;;;;;;0.85;0.85;;;2.70;99.90;;;;;;4385684;32;20103;-53
2020/12/20 08:50:22;;;;;;;3.15;0.95;;;2.80;99.90;;;;;;4384199;32;20079;-57
2020/12/20 08:52:58;;;;;;;1.90;1.15;;;2.90;99.90;;;;;;4384316;32;20087;-56
2020/12/20 08:55:23;;;;;;;3.05;1.20;;;2.90;99.90;;;;;;4385421;32;20070;-56
2020/12/20 08:58:00;;;;;;;0.77;0.77;;;3.10;99.90;;;;;;4384408;32;20078;-58
2020/12/20 09:00:25;;;;;;;1.00;1.00;;;3.30;99.90;;;;;;4384647;32;20074;-56
2020/12/20 09:02:57;;;;;;;1.83;1.67;;;3.40;99.90;;;;;;4385272;32;20054;-58
2020/12/20 09:05:26;;;;;;;3.83;1.60;;;3.30;99.90;;;;;;4390163;32;20472;-55
2020/12/20 09:07:52;;;;;;;1.30;1.20;;;3.50;99.90;;;;;;4399553;32;20053;-58
2020/12/20 09:10:23;;;;;;;2.83;1.92;;;3.70;99.90;;;;;;4400204;32;20075;-58
2020/12/20 09:12:51;;;;;;;3.20;1.98;;;3.70;99.90;;;;;;4388050;32;20053;-58
2020/12/20 09:15:34;;;;;;;0.50;0.50;;;3.80;99.90;;;;;;4399790;32;20066;-58
2020/12/20 09:18:13;;;;;;;0.55;0.55;;;3.90;99.90;;;;;;4391371;32;20062;-58
2020/12/20 09:20:40;;;;;;;3.62;1.83;;;3.90;99.90;;;;;;4373740;32;20054;-58
2020/12/20 09:23:20;;;;;;;1.15;1.05;;;4.00;99.90;;;;;;4371038;32;20082;-60
2020/12/20 09:25:47;;;;;;;1.17;1.10;;;4.10;99.90;;;;;;4385757;32;20121;-57
2020/12/20 09:28:19;;;;;;;0.82;0.82;;;4.10;99.90;;;;;;4383344;32;20078;-60
2020/12/20 09:30:48;;;;;;;1.20;1.00;;;4.20;99.90;;;;;;4384701;32;20158;-52
2020/12/20 09:33:36;;;;;;;1.00;0.93;;;4.30;99.90;;;;;;4384346;32;20129;-57
2020/12/20 09:36:06;;;;;;;1.05;0.98;;;4.20;99.90;;;;;;4374498;32;20070;-58
2020/12/20 09:38:49;;;;;;;1.08;1.05;;;4.20;99.90;;;;;;4384152;32;20057;-53
2020/12/20 09:41:17;;;;;;;1.17;1.15;;;4.30;99.90;;;;;;4384785;32;20062;-58
2020/12/20 09:43:43;;;;;;;1.02;1.02;;;4.50;99.90;;;;;;4384336;32;20090;-55
2020/12/20 09:46:17;;;;;;;1.95;1.77;;;4.60;99.90;;;;;;4384269;32;20083;-57
2020/12/20 09:48:42;;;;;;;1.10;0.82;;;4.60;99.90;;;;;;4372241;32;20062;-56
2020/12/20 09:51:08;;;;;;;0.68;0.68;;;4.60;99.90;;;;;;4384885;32;20067;-53
2020/12/20 09:53:33;;;;;;;0.95;0.88;;;4.50;99.90;;;;;;4385084;32;20058;-58
2020/12/20 09:55:58;;;;;;;1.15;1.10;;;4.60;99.90;;;;;;4385684;32;20070;-58
2020/12/20 09:58:27;;;;;;;2.20;1.30;;;4.70;99.90;;;;;;4383506;32;20129;-57
2020/12/20 10:00:52;;;;;;;1.35;1.25;;;4.80;99.90;;;;;;4383316;32;20078;-56
2020/12/20 10:03:18;;;;;;;0.75;0.75;;;5.00;99.90;;;;;;4384920;32;20062;-56
2020/12/20 10:05:44;;;;;;;0.60;0.60;;;4.70;99.90;;;;;;4390894;32;20078;-56
2020/12/20 10:08:11;;;;;;;11.95;1.23;;;4.80;99.90;;;;;;4399448;32;20055;-56
2020/12/20 10:10:36;;;;;;;1.85;1.00;;;4.90;99.90;;;;;;4399547;32;20062;-56
2020/12/20 10:13:02;;;;;;;2.50;1.33;;;4.80;99.90;;;;;;4399244;32;20419;-57
2020/12/20 10:15:27;;;;;;;11.82;1.95;;;4.90;99.90;;;;;;4399399;32;20086;-53
2020/12/20 10:17:53;;;;;;;0.57;0.57;;;5.20;99.90;;;;;;4393442;32;20492;-55
2020/12/20 10:20:18;;;;;;;2.25;1.08;;;5.20;99.90;;;;;;4384323;32;20066;-57
2020/12/20 10:22:44;;;;;;;0.80;0.80;;;5.30;99.90;;;;;;4383996;32;20070;-58
2020/12/20 10:25:10;;;;;;;3.67;1.17;;;5.40;99.90;;;;;;4382902;32;20132;-58
2020/12/20 10:27:36;;;;;;;2.72;1.87;;;5.40;99.90;;;;;;4383676;32;20075;-55
2020/12/20 10:30:02;;;;;;;3.17;1.15;;;5.60;99.90;;;;;;4385397;32;20082;-58
2020/12/20 10:32:28;;;;;;;0.90;0.90;;;5.80;99.90;;;;;;4385551;32;20111;-55
2020/12/20 10:34:53;;;;;;;0.75;0.75;;;5.90;99.90;;;;;;4384424;32;20477;-60
2020/12/20 10:37:19;;;;;;;0.85;0.85;;;5.80;99.90;;;;;;4384310;32;20066;-58
2020/12/20 10:39:44;;;;;;;2.45;1.17;;;5.90;99.90;;;;;;4385590;32;20078;-55
2020/12/20 10:42:13;;;;;;;1.15;0.70;;;6.00;99.90;;;;;;4384296;32;20393;-57
2020/12/20 10:44:38;;;;;;;7.28;0.98;;;6.20;99.90;;;;;;4383618;32;20113;-56
2020/12/20 10:47:04;;;;;;;0.73;0.73;;;6.10;99.90;;;;;;4384616;32;20543;-53
2020/12/20 10:49:30;;;;;;;0.50;0.50;;;5.60;99.90;;;;;;4382229;32;20069;-56
2020/12/20 10:51:55;;;;;;;2.87;1.08;;;5.70;99.90;;;;;;4385020;32;20061;-57
2020/12/20 10:54:22;;;;;;;1.12;1.02;;;5.80;99.90;;;;;;4383949;32;20062;-54
2020/12/20 10:56:48;;;;;;;0.50;0.50;;;5.80;99.90;;;;;;4381587;32;20075;-56
2020/12/20 10:59:14;;;;;;;3.87;1.00;;;5.80;99.90;;;;;;4382984;32;20083;-58
2020/12/20 11:01:40;;;;;;;3.30;0.98;;;5.80;99.90;;;;;;4383946;32;20070;-55
2020/12/20 11:04:05;;;;;;;0.62;0.62;;;5.70;99.90;;;;;;4383604;32;20406;-55
2020/12/20 11:06:31;;;;;;;2.45;1.33;;;5.80;99.90;;;;;;4395932;32;20379;-56
2020/12/20 11:08:56;;;;;;;0.95;0.88;;;6.00;99.90;;;;;;4399587;32;20121;-54
2020/12/20 11:11:30;;;;;;;0.82;0.82;;;6.00;99.90;;;;;;4398666;32;20074;-55
2020/12/20 11:13:56;;;;;;;0.57;0.52;;;6.00;99.90;;;;;;4400178;32;20073;-57
2020/12/20 11:16:21;;;;;;;0.65;0.65;;;6.20;99.90;;;;;;4398125;32;20562;-57
2020/12/20 11:18:48;;;;;;;1.10;1.00;;;6.20;99.90;;;;;;4386202;32;20070;-58
2020/12/20 11:21:15;;;;;;;2.10;1.35;;;6.20;99.90;;;;;;4383636;32;20078;-57
2020/12/20 11:23:42;;;;;;;0.55;0.55;;;6.20;99.90;;;;;;4385517;32;20059;-56
2020/12/20 11:26:09;;;;;;;2.58;1.83;;;6.20;99.90;;;;;;4383993;32;20062;-58
2020/12/20 11:28:35;;;;;;;0.47;0.47;;;6.30;99.90;;;;;;4383942;32;20067;-57
2020/12/20 11:31:00;;;;;;;0.93;0.65;;;6.50;99.90;;;;;;4385273;32;20066;-59
2020/12/20 11:33:26;;;;;;;1.00;0.93;;;6.60;99.90;;;;;;4384101;32;20083;-59
2020/12/20 11:35:51;;;;;;;0.73;0.70;;;6.80;99.90;;;;;;4384412;32;20086;-59
2020/12/20 11:38:17;;;;;;;0.47;0.47;;;6.80;99.90;;;;;;4384848;32;20057;-59
2020/12/20 11:40:42;;;;;;;0.77;0.77;;;7.00;99.90;;;;;;4387434;32;20062;-55
2020/12/20 11:43:08;;;;;;;5.68;0.88;;;6.80;99.90;;;;;;4386526;32;20070;-57
2020/12/20 11:45:33;;;;;;;0.98;0.80;;;6.70;99.90;;;;;;4386711;32;20070;-58
2020/12/20 11:47:58;;;;;;;1.23;0.90;;;6.60;99.90;;;;;;4386179;32;20168;-58
2020/12/20 11:50:24;;;;;;;0.60;0.60;;;6.50;99.90;;;;;;4386989;32;20421;-58
2020/12/20 11:52:49;;;;;;;0.73;0.73;;;6.60;99.90;;;;;;4386682;32;20058;-58
2020/12/20 11:55:15;;;;;;;2.85;0.98;;;6.40;99.90;;;;;;4385839;32;20063;-59
2020/12/20 11:57:40;;;;;;;2.70;1.23;;;6.40;99.90;;;;;;4386583;32;20113;-56
2020/12/20 12:00:06;;;;;;;2.17;1.05;;;6.20;99.90;;;;;;4386716;32;20409;-57
2020/12/20 12:02:32;;;;;;;1.33;1.08;;;6.30;99.90;;;;;;4386085;32;20067;-59
2020/12/20 12:04:58;;;;;;;0.70;0.70;;;6.30;99.90;;;;;;4389209;32;20352;-58
2020/12/20 12:07:23;;;;;;;0.70;0.70;;;6.30;99.90;;;;;;4400198;32;20058;-59
2020/12/20 12:09:49;;;;;;;2.83;0.75;;;6.40;99.90;;;;;;4400452;32;20074;-55
2020/12/20 12:12:14;;;;;;;0.68;0.68;;;6.50;99.90;;;;;;4401199;32;20174;-59
2020/12/20 12:14:40;;;;;;;0.68;0.68;;;6.50;99.90;;;;;;4400526;32;20070;-58
2020/12/20 12:17:05;;;;;;;1.33;1.12;;;6.70;99.90;;;;;;4399359;32;20082;-59
2020/12/20 12:19:31;;;;;;;1.12;0.80;;;6.70;99.90;;;;;;4386683;32;20071;-55
2020/12/20 12:21:56;;;;;;;18.02;1.55;;;6.70;99.90;;;;;;4385624;32;20074;-60
2020/12/20 12:24:21;;;;;;;4.82;1.70;;;6.90;99.90;;;;;;4386304;32;20058;-59
2020/12/20 12:26:47;;;;;;;0.55;0.55;;;6.70;99.90;;;;;;4385714;32;20079;-58
2020/12/20 12:29:13;;;;;;;0.73;0.73;;;6.40;99.90;;;;;;4385559;32;20075;-57
2020/12/20 12:31:38;;;;;;;0.70;0.70;;;6.30;99.90;;;;;;4385510;32;20446;-58
2020/12/20 12:34:04;;;;;;;0.77;0.77;;;6.40;99.90;;;;;;4386086;32;20071;-55
2020/12/20 12:36:29;;;;;;;0.68;0.68;;;6.40;99.90;;;;;;4384748;32;20063;-58
2020/12/20 12:38:59;;;;;;;1.48;0.65;;;6.40;99.90;;;;;;4386767;32;20066;-57
2020/12/20 12:41:28;;;;;;;0.95;0.93;;;6.30;99.90;;;;;;4386115;32;20114;-58
2020/12/20 12:43:53;;;;;;;0.60;0.60;;;6.30;99.90;;;;;;4384903;32;20059;-55
2020/12/20 12:46:19;;;;;;;2.17;1.00;;;6.30;99.90;;;;;;4385523;32;20069;-58
2020/12/20 12:48:44;;;;;;;0.50;0.50;;;6.30;99.90;;;;;;4385050;32;20393;-57
2020/12/20 12:51:09;;;;;;;2.58;0.70;;;6.30;99.90;;;;;;4384500;32;20593;-58
2020/12/20 12:53:35;;;;;;;0.43;0.43;;;6.30;99.90;;;;;;4384664;32;20397;-58
2020/12/20 12:56:08;;;;;;;0.95;0.95;;;6.20;99.90;;;;;;4386207;32;20121;-56
2020/12/20 12:58:34;;;;;;;0.30;0.30;;;6.20;99.90;;;;;;4384984;32;20070;-56